Time;durP1;ratioP1;P1;durP2;ratioP2;P2;SDS_P1;SDS_P2;PMS_P1;PMS_P2;Temp;Humidity;BMP_temperature;BMP_pressure;BME280_temperature;BME280_humidity;BME280_pressure;Samples;Min_cycle;Max_cycle;Signal;HPM_P1;HPM_P2
2022/12/01 00:02:16;;;;;;;;;;;;;;;10.85;90.16;102437.66;7397713;19;19927;-89
2022/12/01 00:04:43;;;;;;;;;;;;;;;10.88;89.39;102446.16;7396529;19;19915;-88
2022/12/01 00:07:10;;;;;;;;;;;;;;;10.86;89.13;102444.59;7397740;19;19946;-89
2022/12/01 00:12:51;;;;;;;;;;;;;;;10.85;89.08;102438.50;7395477;19;19911;-89
2022/12/01 00:15:18;;;;;;;;;;;;;;;10.82;89.16;102435.28;7389123;19;19927;-88
2022/12/01 00:17:47;;;;;;;;;;;;;;;10.81;89.34;102441.47;7393728;19;19929;-89
2022/12/01 00:20:15;;;;;;;;;;;;;;;10.76;89.42;102439.19;7389730;19;19963;-89
2022/12/01 00:22:44;;;;;;;;;;;;;;;10.77;89.61;102437.41;7392182;19;19941;-89
2022/12/01 00:25:12;;;;;;;;;;;;;;;10.75;89.57;102426.97;7392471;19;19919;-88
2022/12/01 00:27:39;;;;;;;;;;;;;;;10.76;89.17;102426.03;7405353;19;19918;-89
2022/12/01 00:30:07;;;;;;;;;;;;;;;10.80;88.79;102427.47;7396660;19;19919;-87
2022/12/01 00:32:34;;;;;;;;;;;;;;;10.76;88.87;102426.03;7390989;19;19951;-89
2022/12/01 00:35:02;;;;;;;;;;;;;;;10.74;89.01;102425.28;7393774;19;19915;-88
2022/12/01 00:37:30;;;;;;;;;;;;;;;10.76;88.62;102427.81;7395770;19;20319;-89
2022/12/01 00:39:57;;;;;;;;;;;;;;;10.72;88.92;102427.19;7392392;19;19917;-87
2022/12/01 00:42:24;;;;;;;;;;;;;;;10.72;88.94;102420.13;7392661;19;19926;-87
2022/12/01 00:44:51;;;;;;;;;;;;;;;10.69;88.89;102416.91;7390910;19;19959;-87
2022/12/01 00:47:18;;;;;;;;;;;;;;;10.70;89.22;102413.31;7391520;19;21701;-87
2022/12/01 00:49:45;;;;;;;;;;;;;;;10.66;89.58;102417.13;7393136;19;19921;-88
2022/12/01 00:52:19;;;;;;;;;;;;;;;10.65;89.32;102420.72;7394909;19;19914;-87
2022/12/01 00:54:47;;;;;;;;;;;;;;;10.60;89.73;102418.44;7392355;19;19927;-88
2022/12/01 00:57:14;;;;;;;;;;;;;;;10.59;89.95;102410.63;7398752;19;19919;-87
2022/12/01 00:59:41;;;;;;;;;;;;;;;10.63;89.82;102414.72;7391145;19;19922;-89
2022/12/01 01:02:08;;;;;;;;;;;;;;;10.62;89.65;102405.97;7399491;19;19922;-89
2022/12/01 01:04:38;;;;;;;;;;;;;;;10.60;90.07;102409.69;7400512;19;20014;-89
2022/12/01 01:07:05;;;;;;;;;;;;;;;10.59;90.15;102406.22;7397856;19;19970;-88
2022/12/01 01:09:32;;;;;;;;;;;;;;;10.63;90.33;102412.09;7393699;19;19954;-87
2022/12/01 01:11:59;;;;;;;;;;;;;;;10.62;90.35;102408.59;7394589;19;19923;-86
2022/12/01 01:14:26;;;;;;;;;;;;;;;10.62;89.90;102402.50;7394260;19;19919;-88
2022/12/01 01:20:12;;;;;;;;;;;;;;;10.63;89.84;102404.19;7421697;19;19915;-88
2022/12/01 01:22:43;;;;;;;;;;;;;;;10.62;90.36;102405.97;7413693;19;19929;-87
2022/12/01 01:25:11;;;;;;;;;;;;;;;10.62;90.85;102405.97;7399658;19;19930;-89
2022/12/01 01:27:38;;;;;;;;;;;;;;;10.62;90.79;102405.13;7393724;19;19982;-90
2022/12/01 01:30:05;;;;;;;;;;;;;;;10.63;89.91;102412.09;7388838;19;20267;-89
2022/12/01 01:32:32;;;;;;;;;;;;;;;10.62;90.64;102411.25;7386582;19;20309;-88
2022/12/01 01:35:02;;;;;;;;;;;;;;;10.63;90.81;102412.94;7388460;19;20677;-89
2022/12/01 01:40:47;;;;;;;;;;;;;;;10.64;90.53;102422.50;7401490;19;19914;-89
2022/12/01 01:43:15;;;;;;;;;;;;;;;10.62;90.55;102423.56;7393661;19;19932;-88
2022/12/01 01:45:42;;;;;;;;;;;;;;;10.67;90.28;102418.78;7392846;19;19926;-88
2022/12/01 01:48:11;;;;;;;;;;;;;;;10.65;89.31;102439.97;7395481;19;20419;-88
2022/12/01 01:50:38;;;;;;;;;;;;;;;10.63;89.24;102430.50;7396041;19;19923;-88
2022/12/01 01:53:08;;;;;;;;;;;;;;;10.60;89.44;102436.00;7394585;19;19930;-87
2022/12/01 01:55:38;;;;;;;;;;;;;;;10.55;89.44;102433.72;7393725;19;19915;-89
2022/12/01 01:58:10;;;;;;;;;;;;;;;10.51;89.66;102432.28;7393900;19;19947;-89
2022/12/01 02:00:40;;;;;;;;;;;;;;;10.49;89.92;102435.94;7389984;19;19926;-90
2022/12/01 02:03:08;;;;;;;;;;;;;;;10.46;90.20;102429.13;7390696;19;20303;-87
2022/12/01 02:05:36;;;;;;;;;;;;;;;10.42;90.85;102425.03;7389685;19;19919;-86
2022/12/01 02:08:03;;;;;;;;;;;;;;;10.38;90.68;102428.00;7390557;19;19943;-88
2022/12/01 02:10:36;;;;;;;;;;;;;;;10.38;90.69;102425.38;7384912;19;19923;-89
2022/12/01 02:13:15;;;;;;;;;;;;;;;10.39;90.29;102427.91;7388305;19;19923;-89
2022/12/01 02:15:45;;;;;;;;;;;;;;;10.37;90.70;102435.03;7388003;19;19926;-89
2022/12/01 02:18:20;;;;;;;;;;;;;;;10.37;90.89;102428.94;7390274;19;19922;-88
2022/12/01 02:20:46;;;;;;;;;;;;;;;10.37;91.02;102429.78;7387089;19;19919;-87
2022/12/01 02:23:31;;;;;;;;;;;;;;;10.37;91.38;102423.69;7388763;19;19982;-88
2022/12/01 02:26:15;;;;;;;;;;;;;;;10.37;91.55;102423.69;7390277;19;19954;-89
2022/12/01 02:29:07;;;;;;;;;;;;;;;10.39;91.88;102424.41;7388114;19;21597;-89
2022/12/01 02:31:55;;;;;;;;;;;;;;;10.38;91.94;102426.22;7384552;19;19921;-89
2022/12/01 02:34:28;;;;;;;;;;;;;;;10.37;91.95;102426.31;7389674;19;19919;-89
2022/12/01 02:37:14;;;;;;;;;;;;;;;10.37;91.74;102426.31;7390991;19;19930;-89
2022/12/01 02:40:00;;;;;;;;;;;;;;;10.34;91.47;102430.03;7393975;19;19919;-89
2022/12/01 02:42:48;;;;;;;;;;;;;;;10.33;90.73;102424.84;7392506;19;19943;-88
2022/12/01 02:45:22;;;;;;;;;;;;;;;10.28;90.55;102415.53;7395557;19;19998;-88
2022/12/01 02:47:52;;;;;;;;;;;;;;;10.27;91.15;102418.25;7395438;19;19948;-89
2022/12/01 02:50:21;;;;;;;;;;;;;;;10.25;91.14;102417.53;7390624;19;19922;-88
2022/12/01 02:52:48;;;;;;;;;;;;;;;10.25;92.22;102415.75;7393969;19;19923;-88
2022/12/01 02:55:14;;;;;;;;;;;;;;;10.24;92.12;102413.22;7394219;19;19911;-88
2022/12/01 03:01:18;;;;;;;;;;;;;;;10.18;91.05;102416.28;7397979;19;19915;-88
2022/12/01 03:04:11;;;;;;;;;;;;;;;10.19;91.31;102410.94;7393807;19;19919;-89
2022/12/01 03:06:51;;;;;;;;;;;;;;;10.16;91.22;102405.88;7394877;19;19990;-89
2022/12/01 03:09:50;;;;;;;;;;;;;;;10.13;91.19;102400.81;7391193;19;19924;-89
2022/12/01 03:12:17;;;;;;;;;;;;;;;10.08;91.04;102400.31;7391668;19;19925;-90
2022/12/01 03:15:02;;;;;;;;;;;;;;;10.07;91.42;102395.16;7396333;19;19923;-88
2022/12/01 03:17:42;;;;;;;;;;;;;;;10.05;91.67;102405.78;7396275;19;19937;-88
2022/12/01 03:20:11;;;;;;;;;;;;;;;10.06;91.54;102402.19;7396407;19;19927;-89
2022/12/01 03:22:41;;;;;;;;;;;;;;;10.05;91.73;102408.44;7394885;19;19936;-90
2022/12/01 03:25:10;;;;;;;;;;;;;;;10.02;92.08;102400.75;7395382;19;19926;-88
2022/12/01 03:27:40;;;;;;;;;;;;;;;10.04;91.88;102404.13;7393020;19;19972;-89
2022/12/01 03:30:34;;;;;;;;;;;;;;;10.02;91.61;102400.75;7388283;19;19923;-88
2022/12/01 03:33:08;;;;;;;;;;;;;;;10.00;91.39;102392.16;7395012;19;19923;-88
2022/12/01 03:36:01;;;;;;;;;;;;;;;9.99;91.12;102395.72;7388736;19;20306;-88
2022/12/01 03:38:36;;;;;;;;;;;;;;;9.97;91.60;102389.72;7393453;19;20626;-88
2022/12/01 03:41:06;;;;;;;;;;;;;;;9.97;91.71;102394.13;7389720;19;20331;-88
2022/12/01 03:46:54;;;;;;;;;;;;;;;9.95;91.62;102390.78;7390742;19;20357;-88
2022/12/01 03:49:22;;;;;;;;;;;;;;;9.93;91.64;102397.94;7390863;19;20018;-89
2022/12/01 03:52:12;;;;;;;;;;;;;;;9.90;91.82;102388.50;7388943;19;19923;-88
2022/12/01 03:54:39;;;;;;;;;;;;;;;9.93;91.77;102390.88;7387063;19;20315;-88
2022/12/01 03:57:09;;;;;;;;;;;;;;;9.90;91.57;102403.41;7391678;19;19922;-87
2022/12/01 03:59:38;;;;;;;;;;;;;;;9.86;91.89;102401.00;7387634;19;20296;-88
2022/12/01 04:02:06;;;;;;;;;;;;;;;9.87;92.11;102407.09;7388862;19;19924;-85
2022/12/01 04:04:36;;;;;;;;;;;;;;;9.85;92.08;102406.38;7391146;19;20318;-89
2022/12/01 04:10:23;;;;;;;;;;;;;;;9.80;92.34;102404.06;7391139;19;19924;-88
2022/12/01 04:12:58;;;;;;;;;;;;;;;9.80;91.68;102409.31;7392426;19;19962;-89
2022/12/01 04:15:26;;;;;;;;;;;;;;;9.81;91.74;102423.28;7390281;19;20367;-90
2022/12/01 04:17:52;;;;;;;;;;;;;;;9.78;91.95;102420.91;7390007;19;19914;-89
2022/12/01 04:20:19;;;;;;;;;;;;;;;9.76;91.73;102415.75;7387037;19;19918;-89
2022/12/01 04:22:48;;;;;;;;;;;;;;;9.73;92.08;102428.25;7389046;19;19943;-87
2022/12/01 04:25:21;;;;;;;;;;;;;;;9.71;91.56;102428.38;7390432;19;19919;-89
2022/12/01 04:27:48;;;;;;;;;;;;;;;9.65;91.79;102430.59;7389283;19;20317;-89
2022/12/01 04:30:15;;;;;;;;;;;;;;;9.58;92.16;102432.81;7391686;19;19926;-89
2022/12/01 04:32:43;;;;;;;;;;;;;;;9.55;92.23;102435.63;7391503;19;19962;-88
2022/12/01 04:35:11;;;;;;;;;;;;;;;9.52;92.67;102442.88;7391344;19;19950;-88
2022/12/01 04:37:38;;;;;;;;;;;;;;;9.54;93.38;102438.38;7391080;19;21262;-87
2022/12/01 04:40:05;;;;;;;;;;;;;;;9.56;93.08;102442.56;7390529;19;20119;-89
2022/12/01 04:42:33;;;;;;;;;;;;;;;9.55;92.19;102448.75;7388950;19;20631;-87
2022/12/01 04:45:00;;;;;;;;;;;;;;;9.55;91.90;102442.69;7391263;19;19950;-88
2022/12/01 04:47:29;;;;;;;;;;;;;;;9.54;91.35;102448.91;7388559;19;20469;-88
2022/12/01 04:49:59;;;;;;;;;;;;;;;9.51;90.89;102452.56;7392996;19;20361;-88
2022/12/01 04:52:26;;;;;;;;;;;;;;;9.50;90.99;102450.06;7394737;19;20376;-89
2022/12/01 04:55:00;;;;;;;;;;;;;;;9.49;91.34;102448.38;7391304;19;19918;-87
2022/12/01 04:57:27;;;;;;;;;;;;;;;9.50;89.67;102453.50;7387729;19;19947;-88
2022/12/01 04:59:54;;;;;;;;;;;;;;;9.45;89.79;102453.81;7390068;19;19919;-88
2022/12/01 05:02:31;;;;;;;;;;;;;;;9.42;90.08;102459.28;7392310;19;19915;-88
2022/12/01 05:04:59;;;;;;;;;;;;;;;9.39;90.33;102461.28;7388379;19;19915;-89
2022/12/01 05:07:25;;;;;;;;;;;;;;;9.38;90.26;102455.19;7389343;19;19922;-88
2022/12/01 05:09:53;;;;;;;;;;;;;;;9.37;89.54;102455.28;7390173;19;19925;-88
2022/12/01 05:12:20;;;;;;;;;;;;;;;9.36;89.32;102450.97;7388466;19;19922;-88
2022/12/01 05:14:49;;;;;;;;;;;;;;;9.31;89.46;102453.06;7393017;19;20316;-89
2022/12/01 05:17:16;;;;;;;;;;;;;;;9.30;89.48;102454.03;7390309;19;20559;-89
2022/12/01 05:22:31;;;;;;;;;;;;;;;9.18;89.71;102452.25;7396193;19;19918;-89
2022/12/01 05:25:18;;;;;;;;;;;;;;;9.09;90.17;102450.25;7391493;19;19922;-90
2022/12/01 05:27:45;;;;;;;;;;;;;;;9.08;91.04;102446.78;7390872;19;19951;-89
2022/12/01 05:30:15;;;;;;;;;;;;;;;9.11;91.14;102443.94;7391109;19;19922;-89
2022/12/01 05:32:53;;;;;;;;;;;;;;;9.13;90.88;102443.84;7390842;19;20372;-89
2022/12/01 05:35:23;;;;;;;;;;;;;;;9.15;90.87;102448.03;7390274;19;20293;-88
2022/12/01 05:37:56;;;;;;;;;;;;;;;9.18;90.04;102452.25;7393318;19;19931;-88
2022/12/01 05:43:39;;;;;;;;;;;;;;;9.29;90.16;102452.38;7388218;19;19946;-89
2022/12/01 05:46:13;;;;;;;;;;;;;;;9.32;89.44;102460.03;7386687;19;19919;-88
2022/12/01 05:48:46;;;;;;;;;;;;;;;9.37;88.94;102460.56;7387798;19;19929;-89
2022/12/01 05:51:16;;;;;;;;;;;;;;;9.39;88.47;102462.13;7389988;19;19926;-89
2022/12/01 05:53:51;;;;;;;;;;;;;;;9.41;88.36;102465.47;7387765;19;19926;-88
2022/12/01 05:56:21;;;;;;;;;;;;;;;9.40;88.29;102462.94;7387823;19;19933;-88
2022/12/01 05:58:48;;;;;;;;;;;;;;;9.35;87.82;102465.91;7390769;19;20414;-88
2022/12/01 06:01:15;;;;;;;;;;;;;;;9.34;87.63;102468.66;7389818;19;19929;-88
2022/12/01 06:03:42;;;;;;;;;;;;;;;9.32;87.99;102479.25;7389458;19;19923;-89
2022/12/01 06:06:12;;;;;;;;;;;;;;;9.35;86.35;102479.03;7388840;19;19911;-88
2022/12/01 06:08:42;;;;;;;;;;;;;;;9.28;85.33;102474.31;7386656;19;20365;-88
2022/12/01 06:11:09;;;;;;;;;;;;;;;9.25;85.57;102479.75;7386992;19;20399;-88
2022/12/01 06:13:36;;;;;;;;;;;;;;;9.15;85.81;102471.66;7388239;19;19915;-89
2022/12/01 06:16:04;;;;;;;;;;;;;;;9.06;85.96;102480.16;7391760;19;19915;-89
2022/12/01 06:18:35;;;;;;;;;;;;;;;8.97;86.78;102481.59;7392131;19;19922;-89
2022/12/01 06:21:03;;;;;;;;;;;;;;;8.97;86.73;102488.63;7395332;19;19923;-90
2022/12/01 06:23:30;;;;;;;;;;;;;;;8.93;86.87;102474.03;7394268;19;19926;-89
2022/12/01 06:26:00;;;;;;;;;;;;;;;8.95;86.43;102483.47;7394746;19;19926;-88
2022/12/01 06:28:32;;;;;;;;;;;;;;;8.91;86.69;102478.53;7387025;19;19921;-89
2022/12/01 06:31:02;;;;;;;;;;;;;;;8.89;87.09;102489.13;7388313;19;19926;-89
2022/12/01 06:33:30;;;;;;;;;;;;;;;8.87;88.25;102483.16;7384460;19;19927;-90
2022/12/01 06:36:01;;;;;;;;;;;;;;;8.88;88.40;102470.88;7385161;19;19925;-89
2022/12/01 06:38:35;;;;;;;;;;;;;;;8.92;87.89;102475.81;7383114;19;20049;-89
2022/12/01 06:41:02;;;;;;;;;;;;;;;8.91;87.06;102470.66;7385302;19;19911;-89
2022/12/01 06:43:30;;;;;;;;;;;;;;;8.93;87.22;102476.66;7390360;19;19927;-89
2022/12/01 06:45:57;;;;;;;;;;;;;;;8.90;86.67;102468.97;7388527;19;19938;-89
2022/12/01 06:48:34;;;;;;;;;;;;;;;8.88;87.35;102479.59;7389316;19;19939;-88
2022/12/01 06:51:03;;;;;;;;;;;;;;;8.88;87.96;102471.72;7392726;19;20272;-89
2022/12/01 06:53:30;;;;;;;;;;;;;;;8.88;87.64;102481.38;7390861;19;19945;-88
2022/12/01 06:56:01;;;;;;;;;;;;;;;8.91;87.01;102476.75;7392650;19;19923;-87
2022/12/01 06:58:31;;;;;;;;;;;;;;;8.89;86.97;102483.03;7391280;19;19967;-90
2022/12/01 07:00:59;;;;;;;;;;;;;;;8.85;87.63;102482.41;7388609;19;20262;-88
2022/12/01 07:03:27;;;;;;;;;;;;;;;8.84;87.46;102488.59;7389718;19;19930;-88
2022/12/01 07:05:58;;;;;;;;;;;;;;;8.79;87.49;102484.59;7387518;19;19919;-89
2022/12/01 07:08:35;;;;;;;;;;;;;;;8.75;87.68;102480.47;7385994;19;19935;-89
2022/12/01 07:11:08;;;;;;;;;;;;;;;8.72;88.01;102488.56;7389199;19;20581;-88
2022/12/01 07:13:49;;;;;;;;;;;;;;;8.68;88.69;102482.69;7388526;19;19915;-89
2022/12/01 07:19:35;;;;;;;;;;;;;;;8.64;88.38;102499.53;7393230;19;19911;-89
2022/12/01 07:22:04;;;;;;;;;;;;;;;8.59;88.24;102499.84;7395481;19;19928;-88
2022/12/01 07:24:32;;;;;;;;;;;;;;;8.58;88.36;102499.97;7394837;19;19976;-88
2022/12/01 07:26:59;;;;;;;;;;;;;;;8.56;89.35;102510.53;7394441;19;19986;-89
2022/12/01 07:29:26;;;;;;;;;;;;;;;8.56;89.61;102509.69;7396328;19;19923;-88
2022/12/01 07:31:54;;;;;;;;;;;;;;;8.58;89.17;102518.31;7396160;19;19939;-88
2022/12/01 07:34:21;;;;;;;;;;;;;;;8.57;88.94;102514.84;7399213;19;19932;-88
2022/12/01 07:36:48;;;;;;;;;;;;;;;8.52;89.07;102522.19;7397352;19;20294;-89
2022/12/01 07:39:15;;;;;;;;;;;;;;;8.50;89.31;102520.56;7394242;19;20309;-88
2022/12/01 07:41:42;;;;;;;;;;;;;;;8.48;90.03;102527.72;7395819;19;19958;-90
2022/12/01 07:44:09;;;;;;;;;;;;;;;8.47;89.95;102529.50;7393525;19;19938;-88
2022/12/01 07:46:37;;;;;;;;;;;;;;;8.50;89.87;102531.06;7397223;19;20001;-89
2022/12/01 07:49:05;;;;;;;;;;;;;;;8.54;90.10;102532.53;7395399;19;19927;-89
2022/12/01 07:51:33;;;;;;;;;;;;;;;8.55;89.81;102531.63;7397676;19;19946;-86
2022/12/01 07:54:05;;;;;;;;;;;;;;;8.56;89.95;102534.16;7400505;19;19923;-88
2022/12/01 07:56:33;;;;;;;;;;;;;;;8.59;89.95;102538.34;7398241;19;19939;-89
2022/12/01 07:59:01;;;;;;;;;;;;;;;8.61;89.83;102544.34;7396003;19;19919;-89
2022/12/01 08:01:28;;;;;;;;;;;;;;;8.61;89.95;102538.25;7395841;19;19923;-89
2022/12/01 08:03:56;;;;;;;;;;;;;;;8.67;90.38;102527.38;7393866;19;20499;-87
2022/12/01 08:06:23;;;;;;;;;;;;;;;8.73;90.77;102532.25;7394861;19;19923;-87
2022/12/01 08:08:51;;;;;;;;;;;;;;;8.75;90.62;102536.44;7398012;19;19923;-88
2022/12/01 08:11:20;;;;;;;;;;;;;;;8.79;89.95;102529.19;7397189;19;19915;-89
2022/12/01 08:13:47;;;;;;;;;;;;;;;8.85;89.64;102529.66;7403026;19;19917;-88
2022/12/01 08:16:15;;;;;;;;;;;;;;;8.88;89.02;102541.75;7401606;19;20380;-88
2022/12/01 08:18:43;;;;;;;;;;;;;;;8.92;89.35;102545.84;7395929;19;19919;-87
2022/12/01 08:21:11;;;;;;;;;;;;;;;8.94;88.82;102546.56;7398897;19;19933;-90
2022/12/01 08:23:44;;;;;;;;;;;;;;;8.97;89.05;102541.13;7399469;19;19915;-88
2022/12/01 08:26:13;;;;;;;;;;;;;;;9.01;88.51;102550.50;7397971;19;19919;-88
2022/12/01 08:28:41;;;;;;;;;;;;;;;9.05;88.47;102545.88;7395866;19;19922;-88
2022/12/01 08:31:18;;;;;;;;;;;;;;;9.06;88.36;102547.56;7394112;19;19926;-89
2022/12/01 08:33:50;;;;;;;;;;;;;;;9.07;88.53;102542.22;7401314;19;20506;-89
2022/12/01 08:36:20;;;;;;;;;;;;;;;9.12;89.05;102549.78;7397537;19;19923;-89
2022/12/01 08:38:48;;;;;;;;;;;;;;;9.15;88.99;102550.44;7396291;19;19945;-87
2022/12/01 08:41:15;;;;;;;;;;;;;;;9.22;88.30;102551.72;7396332;19;19926;-88
2022/12/01 08:43:43;;;;;;;;;;;;;;;9.23;88.02;102555.19;7395449;19;19922;-87
2022/12/01 08:46:27;;;;;;;;;;;;;;;9.21;87.83;102547.41;7392537;19;19919;-89
2022/12/01 08:48:56;;;;;;;;;;;;;;;9.24;89.20;102552.47;7390811;19;19943;-90
2022/12/01 08:51:24;;;;;;;;;;;;;;;9.24;89.93;102551.63;7392667;19;19922;-90
2022/12/01 08:53:51;;;;;;;;;;;;;;;9.25;90.65;102555.91;7397221;19;19931;-89
2022/12/01 08:56:20;;;;;;;;;;;;;;;9.24;90.42;102554.25;7389255;19;20260;-88
2022/12/01 08:58:47;;;;;;;;;;;;;;;9.24;90.51;102554.25;7396425;19;19994;-87
2022/12/01 09:01:15;;;;;;;;;;;;;;;9.26;90.79;102550.56;7397474;19;20471;-89
2022/12/01 09:03:42;;;;;;;;;;;;;;;9.26;90.03;102550.56;7393274;19;20421;-87
2022/12/01 09:06:14;;;;;;;;;;;;;;;9.26;89.91;102550.56;7392230;19;19911;-87
2022/12/01 09:08:41;;;;;;;;;;;;;;;9.28;88.95;102547.84;7396215;19;19930;-89
2022/12/01 09:11:15;;;;;;;;;;;;;;;9.30;88.99;102544.16;7392829;19;19926;-88
2022/12/01 09:13:42;;;;;;;;;;;;;;;9.32;89.19;102542.28;7392333;19;19927;-89
2022/12/01 09:16:16;;;;;;;;;;;;;;;9.34;88.64;102539.56;7391833;19;19918;-88
2022/12/01 09:18:46;;;;;;;;;;;;;;;9.34;88.20;102543.03;7394901;19;19919;-88
2022/12/01 09:21:14;;;;;;;;;;;;;;;9.39;87.91;102547.97;7391844;19;19911;-88
2022/12/01 09:23:41;;;;;;;;;;;;;;;9.42;87.89;102551.25;7393293;19;19923;-88
2022/12/01 09:26:08;;;;;;;;;;;;;;;9.48;87.95;102546.50;7396804;19;20404;-89
2022/12/01 09:28:40;;;;;;;;;;;;;;;9.45;87.24;102551.03;7393959;19;19933;-87
2022/12/01 09:31:08;;;;;;;;;;;;;;;9.48;87.41;102559.66;7391448;19;19931;-89
2022/12/01 09:33:36;;;;;;;;;;;;;;;9.52;87.14;102556.72;7396034;19;19938;-90
2022/12/01 09:36:04;;;;;;;;;;;;;;;9.55;87.35;102561.75;7395430;19;19959;-87
2022/12/01 09:38:37;;;;;;;;;;;;;;;9.62;86.43;102563.03;7394119;19;19985;-88
2022/12/01 09:41:20;;;;;;;;;;;;;;;9.64;86.06;102573.44;7394294;19;20325;-87
2022/12/01 09:44:12;;;;;;;;;;;;;;;9.63;86.28;102569.97;7392934;19;19935;-87
2022/12/01 09:46:43;;;;;;;;;;;;;;;9.62;86.13;102570.91;7392627;19;20270;-88
2022/12/01 09:49:21;;;;;;;;;;;;;;;9.65;86.81;102570.69;7390797;19;19914;-88
2022/12/01 09:51:49;;;;;;;;;;;;;;;9.69;86.43;102576.59;7387219;19;19950;-88
2022/12/01 09:54:22;;;;;;;;;;;;;;;9.71;86.24;102570.28;7390550;19;19918;-89
2022/12/01 09:56:52;;;;;;;;;;;;;;;9.73;86.16;102570.19;7388337;19;19930;-89
2022/12/01 09:59:24;;;;;;;;;;;;;;;9.76;86.00;102578.69;7401783;19;20246;-89
2022/12/01 10:01:58;;;;;;;;;;;;;;;9.80;85.94;102589.88;7392153;19;20232;-87
2022/12/01 10:07:54;;;;;;;;;;;;;;;9.86;85.67;102589.44;7390043;19;19978;-88
2022/12/01 10:10:36;;;;;;;;;;;;;;;9.90;85.55;102590.09;7390914;19;19998;-87
2022/12/01 10:13:15;;;;;;;;;;;;;;;9.91;85.24;102591.75;7390074;19;20265;-88
2022/12/01 10:15:46;;;;;;;;;;;;;;;9.96;85.42;102593.13;7389335;19;20009;-89
2022/12/01 10:18:16;;;;;;;;;;;;;;;9.99;85.31;102598.19;7387436;19;19915;-88
2022/12/01 10:20:47;;;;;;;;;;;;;;;10.03;85.39;102590.91;7392609;19;19915;-88
2022/12/01 10:23:17;;;;;;;;;;;;;;;10.04;85.13;102582.94;7387817;19;19980;-89
2022/12/01 10:25:55;;;;;;;;;;;;;;;10.09;84.91;102590.50;7388831;19;19971;-88
2022/12/01 10:31:51;;;;;;;;;;;;;;;10.21;84.76;102587.88;7405662;19;19946;-88
2022/12/01 10:34:26;;;;;;;;;;;;;;;10.24;84.37;102594.72;7408037;19;19982;-90
2022/12/01 10:36:56;;;;;;;;;;;;;;;10.29;83.83;102579.47;7403517;19;19922;-91
2022/12/01 10:39:37;;;;;;;;;;;;;;;10.31;83.68;102585.44;7404296;19;19923;-88
2022/12/01 10:42:25;;;;;;;;;;;;;;;10.33;83.55;102582.72;7407420;19;20282;-87
2022/12/01 10:44:53;;;;;;;;;;;;;;;10.32;83.65;102568.72;7398846;19;19923;-88
2022/12/01 10:47:22;;;;;;;;;;;;;;;10.32;83.49;102573.97;7389547;19;20312;-87
2022/12/01 10:49:52;;;;;;;;;;;;;;;10.36;84.22;102561.47;7387096;19;19951;-87
2022/12/01 10:55:41;;;;;;;;;;;;;;;10.42;82.61;102555.75;7399111;19;20526;-88
2022/12/01 10:58:16;;;;;;;;;;;;;;;10.46;82.08;102544.94;7400714;19;19911;-87
2022/12/01 11:01:27;;;;;;;;;;;;;;;10.50;81.74;102545.53;7403953;19;19931;-87
2022/12/01 11:03:56;;;;;;;;;;;;;;;10.52;81.54;102544.47;7401255;19;19951;-88
2022/12/01 11:06:27;;;;;;;;;;;;;;;10.53;82.32;102542.66;7398519;19;20373;-88
2022/12/01 11:09:16;;;;;;;;;;;;;;;10.57;82.03;102542.34;7398332;19;19944;-88
2022/12/01 11:12:03;;;;;;;;;;;;;;;10.62;81.97;102529.69;7397359;19;19948;-89
2022/12/01 11:14:51;;;;;;;;;;;;;;;10.67;82.51;102524.09;7403831;19;19926;-88
2022/12/01 11:17:21;;;;;;;;;;;;;;;10.73;81.19;102528.91;7392760;19;19933;-88
2022/12/01 11:19:51;;;;;;;;;;;;;;;10.70;80.85;102524.72;7391461;19;19926;-87
2022/12/01 11:22:31;;;;;;;;;;;;;;;10.67;81.47;102511.75;7394227;19;19936;-88
2022/12/01 11:25:02;;;;;;;;;;;;;;;10.69;81.04;102509.88;7399498;19;20333;-87
2022/12/01 11:27:47;;;;;;;;;;;;;;;10.76;80.14;102507.66;7395564;19;20348;-88
2022/12/01 11:30:20;;;;;;;;;;;;;;;10.82;78.67;102507.16;7396862;19;19950;-88
2022/12/01 11:32:52;;;;;;;;;;;;;;;10.80;78.99;102511.72;7399132;19;19938;-87
2022/12/01 11:35:21;;;;;;;;;;;;;;;10.77;79.43;102508.50;7394727;19;19927;-88
2022/12/01 11:37:52;;;;;;;;;;;;;;;10.78;79.73;102510.13;7394075;19;19923;-89
2022/12/01 11:40:46;;;;;;;;;;;;;;;10.82;79.26;102501.91;7398358;19;19925;-87
2022/12/01 11:43:32;;;;;;;;;;;;;;;10.83;78.92;102503.59;7395454;19;19911;-87
2022/12/01 11:46:02;;;;;;;;;;;;;;;10.87;79.83;102498.97;7395713;19;19919;-86
2022/12/01 11:48:37;;;;;;;;;;;;;;;10.89;79.67;102497.03;7397964;19;19926;-88
2022/12/01 11:51:15;;;;;;;;;;;;;;;10.91;79.45;102481.97;7395676;19;20351;-88
2022/12/01 11:53:42;;;;;;;;;;;;;;;10.95;78.68;102476.34;7395418;19;19915;-88
2022/12/01 11:56:24;;;;;;;;;;;;;;;10.97;78.20;102465.72;7396909;19;19911;-87
2022/12/01 11:59:02;;;;;;;;;;;;;;;10.99;79.56;102455.91;7394691;19;19919;-87
2022/12/01 12:01:47;;;;;;;;;;;;;;;10.98;78.86;102451.56;7397146;19;19926;-88
2022/12/01 12:04:22;;;;;;;;;;;;;;;11.05;77.05;102451.00;7398312;19;19926;-87
2022/12/01 12:10:22;;;;;;;;;;;;;;;11.07;75.79;102445.63;7396301;19;19925;-88
2022/12/01 12:13:11;;;;;;;;;;;;;;;11.05;76.80;102442.25;7390146;19;19919;-87
2022/12/01 12:15:57;;;;;;;;;;;;;;;11.07;77.41;102443.00;7393455;19;19919;-86
2022/12/01 12:18:27;;;;;;;;;;;;;;;11.08;76.33;102442.88;7390608;19;19994;-86
2022/12/01 12:21:25;;;;;;;;;;;;;;;11.10;76.01;102440.97;7391715;19;19923;-87
2022/12/01 12:24:07;;;;;;;;;;;;;;;11.12;76.90;102443.50;7392373;19;19914;-87
2022/12/01 12:26:41;;;;;;;;;;;;;;;11.14;74.81;102433.66;7401072;19;20341;-87
2022/12/01 12:29:19;;;;;;;;;;;;;;;11.21;74.35;102439.31;7396074;19;19922;-88
2022/12/01 12:32:07;;;;;;;;;;;;;;;11.19;74.63;102436.78;7391322;19;19986;-87
2022/12/01 12:34:34;;;;;;;;;;;;;;;11.17;75.26;102436.09;7394378;19;19915;-89
2022/12/01 12:37:01;;;;;;;;;;;;;;;11.19;76.49;102431.50;7395012;19;20208;-86
2022/12/01 12:39:28;;;;;;;;;;;;;;;11.19;76.45;102426.25;7394731;19;19983;-88
2022/12/01 12:41:56;;;;;;;;;;;;;;;11.24;75.29;102431.16;7393678;19;19926;-88
2022/12/01 12:44:35;;;;;;;;;;;;;;;11.31;73.64;102427.94;7394884;19;19915;-86
2022/12/01 12:47:06;;;;;;;;;;;;;;;11.29;73.30;102416.69;7393995;19;19926;-87
2022/12/01 12:50:02;;;;;;;;;;;;;;;11.28;74.06;102417.63;7393783;19;19918;-88
2022/12/01 12:52:40;;;;;;;;;;;;;;;11.29;74.83;102416.69;7396570;19;19919;-86
2022/12/01 12:55:19;;;;;;;;;;;;;;;11.32;74.77;102419.09;7391757;19;19911;-87
2022/12/01 12:58:02;;;;;;;;;;;;;;;11.36;74.43;102417.06;7394215;19;19922;-86
2022/12/01 13:00:39;;;;;;;;;;;;;;;11.40;74.33;102415.84;7399645;19;19915;-88
2022/12/01 13:03:25;;;;;;;;;;;;;;;11.45;74.82;102411.06;7395698;19;20478;-87
2022/12/01 13:06:06;;;;;;;;;;;;;;;11.50;74.46;102414.19;7392277;19;20018;-88
2022/12/01 13:08:49;;;;;;;;;;;;;;;11.55;74.89;102418.13;7390795;19;19915;-89
2022/12/01 13:11:22;;;;;;;;;;;;;;;11.60;74.14;102409.88;7391823;19;19923;-89
2022/12/01 13:13:54;;;;;;;;;;;;;;;11.67;72.11;102415.50;7394640;19;19995;-89
2022/12/01 13:16:55;;;;;;;;;;;;;;;11.72;70.97;102413.34;7400100;19;19930;-89
2022/12/01 13:22:40;;;;;;;;;;;;;;;11.69;71.24;102419.69;7396319;19;19923;-87
2022/12/01 13:25:11;;;;;;;;;;;;;;;11.74;70.27;102416.72;7393672;19;19917;-86
2022/12/01 13:27:40;;;;;;;;;;;;;;;11.76;70.78;102420.09;7391447;19;19926;-88
2022/12/01 13:30:18;;;;;;;;;;;;;;;11.77;71.14;102409.44;7391465;19;20287;-88
2022/12/01 13:32:46;;;;;;;;;;;;;;;11.80;71.24;102410.97;7393936;19;19925;-88
2022/12/01 13:35:45;;;;;;;;;;;;;;;11.85;69.19;102414.91;7393610;19;19922;-88
2022/12/01 13:41:27;;;;;;;;;;;;;;;11.96;69.42;102411.44;7394703;19;20016;-88
2022/12/01 13:50:53;;;;;;;;;;;;;;;11.93;69.15;102412.53;7394601;19;19923;-88
2022/12/01 13:53:23;;;;;;;;;;;;;;;11.93;68.92;102407.25;7407885;19;19927;-88
2022/12/01 13:55:57;;;;;;;;;;;;;;;11.91;69.87;102400.41;7409393;19;20337;-89
2022/12/01 13:58:48;;;;;;;;;;;;;;;11.93;69.20;102401.13;7405207;19;19933;-87
2022/12/01 14:01:20;;;;;;;;;;;;;;;11.93;69.38;102401.97;7395771;19;19982;-89
2022/12/01 14:04:02;;;;;;;;;;;;;;;;;;;;;
2022/12/01 14:06:47;;;;;;;;;;;;;;;11.93;69.38;102401.13;7394279;19;19938;-88